createdAt,value
2022-09-12T00:00:44.750Z,14.36
2022-09-12T00:03:11.486Z,14.28
2022-09-12T00:05:44.236Z,14.32
2022-09-12T00:08:12.013Z,14.25
2022-09-12T00:10:43.911Z,14.21
2022-09-12T00:13:11.947Z,14.26
2022-09-12T00:15:44.207Z,14.31
2022-09-12T00:18:15.783Z,14.30
2022-09-12T00:20:47.212Z,14.36
2022-09-12T00:23:15.114Z,14.37
2022-09-12T00:25:48.613Z,14.27
2022-09-12T00:28:17.887Z,14.25
2022-09-12T00:30:48.891Z,14.26
2022-09-12T00:33:17.636Z,14.27
2022-09-12T00:35:50.392Z,14.25
2022-09-12T00:38:17.520Z,14.22
2022-09-12T00:40:45.219Z,14.25
2022-09-12T00:43:30.882Z,14.29
2022-09-12T00:46:02.086Z,14.28
2022-09-12T00:48:42.081Z,14.19
2022-09-12T00:51:10.413Z,14.11
2022-09-12T00:53:41.201Z,14.07
2022-09-12T00:56:08.694Z,14.12
2022-09-12T00:58:50.447Z,14.08
2022-09-12T01:01:18.792Z,14.07
2022-09-12T01:03:48.652Z,14.04
2022-09-12T01:06:43.085Z,13.97
2022-09-12T01:09:20.294Z,13.98
2022-09-12T01:11:49.265Z,13.96
2022-09-12T01:14:19.451Z,13.95
2022-09-12T01:16:49.953Z,13.96
2022-09-12T01:19:54.606Z,13.98
2022-09-12T01:23:00.746Z,14.04
2022-09-12T01:25:36.415Z,13.96
2022-09-12T01:28:37.952Z,13.97
2022-09-12T01:31:35.844Z,13.91
2022-09-12T01:34:21.196Z,13.91
2022-09-12T01:37:45.659Z,13.92
2022-09-12T01:40:40.639Z,13.83
2022-09-12T01:43:45.746Z,13.79
2022-09-12T01:46:29.494Z,13.73
2022-09-12T01:49:15.741Z,13.67
2022-09-12T01:52:18.482Z,13.59
2022-09-12T01:54:57.789Z,13.55
2022-09-12T01:57:41.291Z,13.64
2022-09-12T02:00:12.709Z,13.72
2022-09-12T02:03:02.930Z,13.78
2022-09-12T02:05:34.886Z,13.73
2022-09-12T02:08:29.657Z,13.64
2022-09-12T02:11:06.562Z,13.53
2022-09-12T02:14:25.862Z,13.57
2022-09-12T02:17:02.277Z,13.50
2022-09-12T02:19:40.853Z,13.45
2022-09-12T02:22:17.197Z,13.47
2022-09-12T02:24:49.472Z,13.51
2022-09-12T02:27:23.989Z,13.48
2022-09-12T02:29:52.024Z,13.41
2022-09-12T02:32:48.307Z,13.34
2022-09-12T02:35:49.141Z,13.37
2022-09-12T02:38:40.418Z,13.51
2022-09-12T02:41:07.652Z,13.51
2022-09-12T02:43:34.768Z,13.44
2022-09-12T02:46:01.885Z,13.36
2022-09-12T02:48:37.195Z,13.27
2022-09-12T02:51:04.089Z,13.32
2022-09-12T02:53:31.717Z,13.33
2022-09-12T02:55:58.930Z,13.30
2022-09-12T02:58:31.941Z,13.30
2022-09-12T03:01:17.544Z,13.20
2022-09-12T03:04:32.734Z,13.21
2022-09-12T03:07:37.753Z,13.19
2022-09-12T03:10:28.881Z,13.07
2022-09-12T03:13:07.531Z,13.08
2022-09-12T03:16:10.215Z,12.99
2022-09-12T03:19:33.790Z,13.08
2022-09-12T03:22:27.597Z,13.13
2022-09-12T03:25:19.933Z,13.06
2022-09-12T03:28:07.419Z,13.09
2022-09-12T03:30:44.698Z,13.09
2022-09-12T03:33:13.869Z,12.99
2022-09-12T03:35:41.196Z,12.98
2022-09-12T03:38:08.580Z,12.96
2022-09-12T03:40:37.626Z,12.96
2022-09-12T03:43:07.895Z,12.98
2022-09-12T03:45:36.647Z,12.97
2022-09-12T03:48:05.021Z,12.97
2022-09-12T03:50:32.033Z,12.95
2022-09-12T03:53:03.655Z,12.99
2022-09-12T03:55:31.011Z,13.01
2022-09-12T03:57:57.796Z,13.00
2022-09-12T04:00:24.898Z,12.92
2022-09-12T04:02:57.208Z,12.88
2022-09-12T04:05:25.759Z,12.92
2022-09-12T04:07:52.951Z,12.93
2022-09-12T04:10:19.875Z,13.04
2022-09-12T04:12:46.915Z,13.08
2022-09-12T04:15:14.239Z,13.06
2022-09-12T04:17:41.076Z,13.01
2022-09-12T04:20:08.274Z,12.99
2022-09-12T04:22:35.256Z,12.98
2022-09-12T04:25:02.694Z,12.94
2022-09-12T04:27:29.454Z,12.96
2022-09-12T04:29:57.053Z,12.96
2022-09-12T04:32:24.004Z,12.96
2022-09-12T04:34:52.413Z,12.91
2022-09-12T04:37:19.538Z,12.93
2022-09-12T04:39:49.066Z,12.81
2022-09-12T04:42:16.690Z,12.80
2022-09-12T04:44:43.893Z,12.83
2022-09-12T04:47:10.837Z,12.84
2022-09-12T04:49:37.842Z,12.87
2022-09-12T04:52:05.042Z,12.92
2022-09-12T04:54:31.999Z,13.05
2022-09-12T04:56:59.513Z,13.11
2022-09-12T04:59:26.511Z,13.09
2022-09-12T05:01:53.257Z,13.07
2022-09-12T05:04:20.480Z,13.05
2022-09-12T05:06:47.456Z,13.08
2022-09-12T05:09:14.802Z,13.07
2022-09-12T05:12:03.729Z,13.05
2022-09-12T05:14:32.586Z,12.96
2022-09-12T05:17:01.411Z,12.94
2022-09-12T05:19:31.160Z,12.96
2022-09-12T05:21:59.027Z,12.97
2022-09-12T05:24:26.145Z,13.01
2022-09-12T05:26:53.382Z,13.08
2022-09-12T05:29:20.156Z,13.11
2022-09-12T05:31:51.095Z,13.21
2022-09-12T05:34:19.232Z,13.16
2022-09-12T05:36:45.968Z,13.18
2022-09-12T05:39:12.753Z,13.28
2022-09-12T05:41:39.583Z,13.18
2022-09-12T05:44:12.023Z,13.15
2022-09-12T05:46:41.974Z,13.14
2022-09-12T05:49:12.517Z,13.23
2022-09-12T05:51:45.597Z,13.29
2022-09-12T05:54:19.385Z,13.28
2022-09-12T05:56:47.989Z,13.36
2022-09-12T05:59:19.821Z,13.37
2022-09-12T06:01:48.683Z,13.35
2022-09-12T06:04:16.519Z,13.38
2022-09-12T06:06:46.077Z,13.37
2022-09-12T06:09:16.578Z,13.42
2022-09-12T06:11:44.373Z,13.38
2022-09-12T06:14:14.620Z,13.36
2022-09-12T06:16:41.791Z,13.39
2022-09-12T06:19:16.311Z,13.44
2022-09-12T06:21:45.551Z,13.53
2022-09-12T06:24:12.781Z,13.60
2022-09-12T06:26:39.673Z,13.70
2022-09-12T06:29:07.539Z,13.79
2022-09-12T06:31:38.054Z,13.92
2022-09-12T06:34:12.494Z,13.98
2022-09-12T06:36:46.525Z,14.00
2022-09-12T06:39:21.388Z,13.97
2022-09-12T06:41:50.780Z,13.95
2022-09-12T06:44:21.842Z,13.97
2022-09-12T06:46:49.696Z,14.03
2022-09-12T06:49:17.694Z,14.12
2022-09-12T06:51:44.710Z,14.23
2022-09-12T06:54:17.126Z,14.35
2022-09-12T06:56:44.800Z,14.47
2022-09-12T06:59:12.141Z,14.53
2022-09-12T07:01:40.041Z,14.61
2022-09-12T07:04:07.069Z,14.71
2022-09-12T07:06:41.229Z,14.83
2022-09-12T07:09:13.338Z,14.94
2022-09-12T07:11:42.176Z,15.05
2022-09-12T07:14:13.842Z,15.11
2022-09-12T07:16:41.738Z,15.15
2022-09-12T07:19:09.887Z,15.18
2022-09-12T07:21:39.789Z,15.26
2022-09-12T07:24:09.425Z,15.33
2022-09-12T07:26:36.878Z,15.42
2022-09-12T07:29:32.276Z,15.51
2022-09-12T07:31:50.414Z,15.64
2022-09-12T07:34:17.577Z,15.77
2022-09-12T07:36:44.435Z,15.91
2022-09-12T07:39:11.287Z,16.04
2022-09-12T07:41:38.190Z,16.14
2022-09-12T07:44:06.736Z,16.27
2022-09-12T07:46:34.018Z,16.40
2022-09-12T07:49:01.498Z,16.57
2022-09-12T07:51:30.502Z,16.74
2022-09-12T07:53:57.897Z,16.93
2022-09-12T07:56:30.500Z,17.13
2022-09-12T07:58:57.767Z,17.39
2022-09-12T08:01:24.826Z,17.64
2022-09-12T08:03:58.949Z,17.87
2022-09-12T08:06:28.355Z,18.06
2022-09-12T08:08:57.700Z,18.27
2022-09-12T08:11:27.954Z,18.53
2022-09-12T08:13:57.725Z,18.81
2022-09-12T08:16:31.164Z,19.17
2022-09-12T08:18:59.894Z,19.56
2022-09-12T08:21:31.049Z,19.94
2022-09-12T08:24:02.057Z,20.30
2022-09-12T08:26:30.504Z,20.54
2022-09-12T08:28:57.516Z,20.75
2022-09-12T08:31:26.990Z,20.91
2022-09-12T08:33:57.649Z,21.11
2022-09-12T08:36:29.538Z,21.24
2022-09-12T08:39:04.970Z,21.51
2022-09-12T08:41:40.619Z,21.73
2022-09-12T08:44:58.353Z,21.80
2022-09-12T08:47:42.237Z,21.94
2022-09-12T08:50:11.785Z,22.27
2022-09-12T08:53:04.675Z,22.59
2022-09-12T08:55:44.119Z,22.71
2022-09-12T08:58:20.787Z,22.80
2022-09-12T09:01:24.128Z,22.98
2022-09-12T09:04:06.971Z,23.18
2022-09-12T09:06:58.481Z,23.50
2022-09-12T09:09:59.584Z,23.61
2022-09-12T09:12:54.203Z,23.75
2022-09-12T09:15:51.351Z,23.88
2022-09-12T09:18:29.193Z,23.99
2022-09-12T09:21:31.025Z,23.66
2022-09-12T09:24:14.074Z,23.64
2022-09-12T09:27:01.739Z,23.85
2022-09-12T09:29:41.314Z,23.83
2022-09-12T09:32:38.065Z,23.40
2022-09-12T09:35:28.319Z,23.18
2022-09-12T09:38:10.771Z,23.65
2022-09-12T09:40:54.300Z,23.91
2022-09-12T09:43:25.345Z,24.07
2022-09-12T09:45:52.970Z,24.13
2022-09-12T09:48:26.630Z,24.52
2022-09-12T09:50:53.600Z,24.94
2022-09-12T09:53:52.994Z,25.17
2022-09-12T09:56:40.157Z,25.20
2022-09-12T09:59:25.565Z,25.05
2022-09-12T10:02:03.886Z,24.98
2022-09-12T10:04:41.571Z,24.90
2022-09-12T10:07:21.617Z,24.90
2022-09-12T10:10:18.440Z,25.02
2022-09-12T10:12:45.919Z,25.06
2022-09-12T10:15:29.415Z,25.23
2022-09-12T10:17:57.012Z,25.40
2022-09-12T10:20:45.143Z,25.64
2022-09-12T10:23:37.309Z,25.91
2022-09-12T10:26:12.345Z,25.60
2022-09-12T10:28:51.922Z,25.62
2022-09-12T10:31:29.606Z,25.73
2022-09-12T10:34:00.770Z,25.66
2022-09-12T10:36:39.610Z,25.88
2022-09-12T10:39:13.870Z,26.02
2022-09-12T10:41:41.532Z,26.24
2022-09-12T10:44:26.250Z,26.36
2022-09-12T10:46:54.536Z,26.61
2022-09-12T10:49:24.625Z,27.00
2022-09-12T10:51:54.380Z,27.27
2022-09-12T10:54:28.469Z,27.32
2022-09-12T10:57:24.008Z,27.40
2022-09-12T11:00:17.198Z,27.21
2022-09-12T11:02:51.746Z,27.16
2022-09-12T11:05:36.679Z,27.41
2022-09-12T11:08:49.174Z,27.70
2022-09-12T11:12:03.297Z,27.76
2022-09-12T11:15:11.128Z,28.03
2022-09-12T11:17:50.403Z,28.14
2022-09-12T11:20:43.675Z,28.33
2022-09-12T11:23:31.539Z,28.82
2022-09-12T11:26:45.140Z,29.01
2022-09-12T11:29:45.637Z,29.66
2022-09-12T11:32:39.279Z,30.25
2022-09-12T11:35:31.359Z,30.81
2022-09-12T11:38:28.499Z,30.86
2022-09-12T11:41:09.767Z,31.25
2022-09-12T11:44:03.570Z,31.24
2022-09-12T11:46:37.662Z,31.21
2022-09-12T11:49:16.951Z,31.47
2022-09-12T11:51:59.440Z,32.04
2022-09-12T11:54:30.425Z,32.06
2022-09-12T11:57:29.470Z,32.00
2022-09-12T12:00:09.453Z,31.80
2022-09-12T12:03:14.745Z,31.77
2022-09-12T12:06:21.363Z,32.21
2022-09-12T12:08:50.553Z,32.46
2022-09-12T12:11:40.185Z,32.30
2022-09-12T12:14:18.295Z,32.22
2022-09-12T12:16:46.616Z,32.28
2022-09-12T12:19:16.054Z,32.58
2022-09-12T12:21:51.262Z,32.29
2022-09-12T12:24:26.155Z,32.48
2022-09-12T12:27:22.324Z,32.88
2022-09-12T12:29:49.120Z,32.60
2022-09-12T12:32:22.170Z,32.46
2022-09-12T12:34:49.038Z,32.09
2022-09-12T12:37:41.848Z,32.02
2022-09-12T12:40:22.769Z,32.49
2022-09-12T12:42:49.930Z,32.86
2022-09-12T12:45:28.926Z,33.33
2022-09-12T12:48:05.094Z,33.52
2022-09-12T12:50:35.093Z,33.55
2022-09-12T12:53:19.017Z,33.83
2022-09-12T12:55:53.571Z,33.43
2022-09-12T12:58:39.521Z,33.78
2022-09-12T13:01:18.618Z,34.12
2022-09-12T13:04:05.593Z,34.09
2022-09-12T13:06:41.078Z,33.46
2022-09-12T13:09:32.988Z,33.46
2022-09-12T13:12:12.738Z,33.88
2022-09-12T13:14:59.299Z,34.16
2022-09-12T13:17:41.408Z,34.02
2022-09-12T13:20:28.921Z,34.30
2022-09-12T13:22:58.206Z,34.21
2022-09-12T13:25:31.336Z,34.34
2022-09-12T13:28:11.256Z,34.29
2022-09-12T13:30:44.111Z,34.44
2022-09-12T13:33:38.936Z,34.37
2022-09-12T13:36:42.637Z,33.73
2022-09-12T13:39:38.291Z,34.18
2022-09-12T13:42:35.622Z,34.03
2022-09-12T13:45:23.492Z,33.85
2022-09-12T13:48:10.302Z,33.27
2022-09-12T13:50:51.369Z,33.39
2022-09-12T13:53:23.735Z,33.47
2022-09-12T13:55:57.773Z,33.68
2022-09-12T13:58:37.079Z,33.44
2022-09-12T14:01:09.938Z,33.67
2022-09-12T14:04:01.630Z,33.44
2022-09-12T14:06:28.857Z,33.52
2022-09-12T14:09:01.398Z,33.05
2022-09-12T14:11:30.877Z,32.94
2022-09-12T14:14:00.331Z,32.84
2022-09-12T14:16:40.285Z,33.09
2022-09-12T14:19:10.151Z,32.55
2022-09-12T14:21:38.011Z,32.17
2022-09-12T14:24:08.534Z,31.96
2022-09-12T14:26:40.550Z,32.06
2022-09-12T14:29:08.627Z,31.58
2022-09-12T14:31:38.439Z,31.44
2022-09-12T14:34:14.315Z,31.53
2022-09-12T14:36:55.255Z,31.56
2022-09-12T14:39:45.063Z,31.74
2022-09-12T14:42:21.140Z,31.40
2022-09-12T14:45:17.296Z,31.06
2022-09-12T14:47:51.197Z,30.86
2022-09-12T14:50:26.411Z,30.38
2022-09-12T14:53:31.411Z,29.42
2022-09-12T14:56:11.731Z,28.57
2022-09-12T14:58:42.553Z,28.51
2022-09-12T15:01:09.347Z,28.34
2022-09-12T15:03:40.981Z,28.08
2022-09-12T15:06:28.439Z,27.93
2022-09-12T15:09:00.259Z,27.71
2022-09-12T15:11:27.464Z,27.44
2022-09-12T15:13:54.497Z,27.43
2022-09-12T15:16:22.796Z,27.38
2022-09-12T15:18:49.934Z,27.30
2022-09-12T15:21:20.437Z,27.20
2022-09-12T15:23:52.390Z,26.97
2022-09-12T15:26:23.247Z,26.78
2022-09-12T15:28:50.818Z,26.67
2022-09-12T15:31:29.373Z,26.73
2022-09-12T15:33:59.027Z,26.72
2022-09-12T15:36:26.627Z,26.70
2022-09-12T15:38:53.588Z,26.47
2022-09-12T15:41:37.359Z,26.51
2022-09-12T15:44:06.680Z,26.54
2022-09-12T15:46:36.785Z,26.56
2022-09-12T15:49:03.648Z,26.56
2022-09-12T15:51:30.372Z,26.44
2022-09-12T15:53:57.132Z,26.36
2022-09-12T15:56:23.923Z,26.21
2022-09-12T15:58:59.583Z,26.06
2022-09-12T16:01:29.723Z,26.09
2022-09-12T16:03:57.296Z,26.11
2022-09-12T16:06:24.433Z,26.06
2022-09-12T16:08:51.219Z,25.93
2022-09-12T16:11:27.180Z,25.96
2022-09-12T16:13:56.583Z,25.88
2022-09-12T16:16:23.475Z,25.74
2022-09-12T16:18:50.391Z,25.70
2022-09-12T16:21:17.259Z,25.61
2022-09-12T16:23:46.216Z,25.59
2022-09-12T16:26:13.353Z,25.56
2022-09-12T16:28:40.264Z,25.61
2022-09-12T16:31:10.393Z,25.55
2022-09-12T16:33:39.529Z,25.44
2022-09-12T16:36:13.709Z,25.44
2022-09-12T16:38:43.089Z,25.38
2022-09-12T16:41:11.024Z,25.28
2022-09-12T16:43:38.188Z,25.11
2022-09-12T16:46:12.617Z,24.94
2022-09-12T16:48:52.160Z,24.76
2022-09-12T16:51:27.175Z,24.77
2022-09-12T16:53:55.833Z,24.66
2022-09-12T16:56:23.626Z,24.58
2022-09-12T16:58:51.536Z,24.50
2022-09-12T17:01:25.693Z,24.35
2022-09-12T17:03:56.423Z,24.22
2022-09-12T17:06:25.129Z,24.24
2022-09-12T17:08:54.471Z,24.08
2022-09-12T17:11:31.613Z,23.98
2022-09-12T17:14:04.838Z,23.90
2022-09-12T17:16:34.574Z,23.78
2022-09-12T17:19:01.584Z,23.77
2022-09-12T17:21:31.537Z,23.76
2022-09-12T17:23:59.098Z,23.63
2022-09-12T17:26:26.676Z,23.46
2022-09-12T17:28:53.708Z,23.36
2022-09-12T17:31:20.658Z,23.27
2022-09-12T17:33:47.919Z,22.96
2022-09-12T17:36:17.671Z,22.78
2022-09-12T17:38:45.983Z,22.59
2022-09-12T17:41:18.443Z,22.46
2022-09-12T17:43:52.164Z,22.31
2022-09-12T17:46:20.689Z,22.20
2022-09-12T17:48:57.289Z,22.24
2022-09-12T17:51:28.830Z,22.11
2022-09-12T17:54:06.612Z,22.07
2022-09-12T17:56:35.749Z,21.85
2022-09-12T17:59:03.381Z,21.84
2022-09-12T18:01:49.853Z,21.77
2022-09-12T18:04:17.673Z,21.67
2022-09-12T18:06:50.773Z,21.43
2022-09-12T18:09:24.813Z,21.18
2022-09-12T18:11:52.976Z,21.14
2022-09-12T18:14:21.019Z,21.12
2022-09-12T18:16:48.800Z,21.11
2022-09-12T18:19:16.352Z,21.11
2022-09-12T18:21:43.294Z,21.03
2022-09-12T18:24:11.295Z,20.89
2022-09-12T18:26:38.582Z,20.77
2022-09-12T18:29:06.348Z,20.66
2022-09-12T18:31:33.194Z,20.54
2022-09-12T18:34:00.982Z,20.39
2022-09-12T18:36:29.947Z,20.26
2022-09-12T18:39:00.699Z,20.27
2022-09-12T18:41:28.828Z,20.19
2022-09-12T18:43:58.730Z,20.17
2022-09-12T18:46:28.413Z,20.06
2022-09-12T18:49:03.109Z,20.02
2022-09-12T18:51:34.748Z,20.02
2022-09-12T18:54:13.412Z,19.93
2022-09-12T18:56:43.971Z,19.86
2022-09-12T18:59:12.787Z,19.80
2022-09-12T19:01:40.222Z,19.79
2022-09-12T19:04:09.993Z,19.79
2022-09-12T19:06:44.123Z,19.62
2022-09-12T19:09:13.930Z,19.57
2022-09-12T19:11:49.500Z,19.42
2022-09-12T19:14:22.988Z,19.39
2022-09-12T19:16:51.903Z,19.43
2022-09-12T19:19:18.983Z,19.40
2022-09-12T19:21:46.168Z,19.35
2022-09-12T19:24:14.328Z,19.37
2022-09-12T19:26:41.888Z,19.25
2022-09-12T19:29:46.035Z,19.07
2022-09-12T19:32:12.807Z,19.03
2022-09-12T19:34:39.616Z,19.05
2022-09-12T19:37:06.441Z,19.08
2022-09-12T19:39:33.581Z,19.03
2022-09-12T19:42:00.353Z,18.94
2022-09-12T19:44:29.230Z,18.90
2022-09-12T19:46:56.001Z,18.91
2022-09-12T19:49:22.798Z,18.95
2022-09-12T19:51:49.690Z,18.90
2022-09-12T19:54:16.410Z,18.65
2022-09-12T19:56:43.463Z,18.51
2022-09-12T19:59:10.513Z,18.53
2022-09-12T20:01:37.643Z,18.54
2022-09-12T20:04:05.491Z,18.54
2022-09-12T20:06:32.442Z,18.41
2022-09-12T20:08:59.949Z,18.40
2022-09-12T20:11:26.909Z,18.40
2022-09-12T20:13:53.914Z,18.38
2022-09-12T20:16:29.041Z,18.46
2022-09-12T20:19:00.740Z,18.45
2022-09-12T20:21:32.946Z,18.43
2022-09-12T20:24:09.673Z,18.34
2022-09-12T20:26:36.967Z,18.32
2022-09-12T20:29:05.386Z,18.23
2022-09-12T20:31:33.309Z,18.26
2022-09-12T20:34:00.300Z,18.41
2022-09-12T20:36:27.439Z,18.46
2022-09-12T20:38:59.195Z,18.44
2022-09-12T20:41:29.831Z,18.30
2022-09-12T20:43:57.374Z,18.11
2022-09-12T20:46:26.629Z,18.14
2022-09-12T20:48:54.161Z,18.09
2022-09-12T20:51:22.114Z,18.01
2022-09-12T20:53:57.620Z,17.98
2022-09-12T20:56:26.749Z,17.77
2022-09-12T20:58:55.650Z,17.62
2022-09-12T21:01:23.720Z,17.62
2022-09-12T21:03:51.245Z,17.76
2022-09-12T21:06:19.651Z,17.72
2022-09-12T21:08:48.758Z,17.71
2022-09-12T21:11:17.638Z,17.63
2022-09-12T21:13:44.588Z,17.49
2022-09-12T21:16:18.337Z,17.48
2022-09-12T21:18:46.318Z,17.42
2022-09-12T21:21:15.255Z,17.34
2022-09-12T21:23:42.141Z,17.31
2022-09-12T21:26:09.342Z,17.20
2022-09-12T21:28:36.448Z,17.21
2022-09-12T21:31:03.779Z,17.23
2022-09-12T21:33:30.793Z,17.18
2022-09-12T21:36:03.756Z,17.17
2022-09-12T21:38:31.338Z,17.21
2022-09-12T21:41:09.309Z,17.24
2022-09-12T21:43:37.658Z,17.16
2022-09-12T21:46:06.172Z,17.18
2022-09-12T21:48:34.245Z,17.04
2022-09-12T21:51:02.256Z,16.97
2022-09-12T21:53:29.092Z,16.94
2022-09-12T21:56:05.823Z,16.96
2022-09-12T21:58:32.680Z,16.76
2022-09-12T22:01:00.829Z,16.75
2022-09-12T22:03:29.210Z,16.70
2022-09-12T22:06:05.527Z,16.59
2022-09-12T22:08:35.067Z,16.61
2022-09-12T22:11:07.804Z,16.66
2022-09-12T22:13:36.560Z,16.53
2022-09-12T22:16:03.855Z,16.50
2022-09-12T22:18:34.097Z,16.50
2022-09-12T22:21:15.780Z,16.58
2022-09-12T22:24:01.519Z,16.62
2022-09-12T22:26:31.996Z,16.71
2022-09-12T22:28:58.751Z,16.57
2022-09-12T22:31:26.948Z,16.60
2022-09-12T22:33:59.655Z,16.64
2022-09-12T22:36:30.999Z,16.68
2022-09-12T22:38:59.356Z,16.63
2022-09-12T22:41:26.399Z,16.72
2022-09-12T22:43:53.234Z,16.81
2022-09-12T22:46:20.174Z,16.86
2022-09-12T22:48:47.029Z,16.84
2022-09-12T22:51:13.758Z,16.80
2022-09-12T22:53:43.663Z,16.61
2022-09-12T22:56:10.627Z,16.52
2022-09-12T22:58:37.504Z,16.49
2022-09-12T23:01:06.276Z,16.42
2022-09-12T23:03:34.218Z,16.27
2022-09-12T23:06:01.076Z,16.19
2022-09-12T23:08:29.450Z,16.11
2022-09-12T23:11:14.149Z,16.09
2022-09-12T23:13:47.083Z,16.19
2022-09-12T23:16:21.727Z,16.13
2022-09-12T23:18:49.498Z,16.13
2022-09-12T23:21:19.888Z,16.17
2022-09-12T23:23:46.944Z,16.16
2022-09-12T23:26:17.222Z,16.16
2022-09-12T23:28:53.841Z,16.22
2022-09-12T23:31:22.983Z,16.31
2022-09-12T23:33:52.835Z,16.27
2022-09-12T23:36:19.717Z,16.28
2022-09-12T23:38:47.259Z,16.16
2022-09-12T23:41:16.958Z,16.06
2022-09-12T23:43:45.449Z,15.88
2022-09-12T23:46:14.151Z,15.86
2022-09-12T23:48:42.590Z,15.81
2022-09-12T23:51:11.050Z,15.95
2022-09-12T23:53:38.534Z,15.97
2022-09-12T23:56:06.265Z,16.02
2022-09-12T23:58:33.492Z,16.01
